Time;durP1;ratioP1;P1;durP2;ratioP2;P2;SDS_P1;SDS_P2;PMS_P1;PMS_P2;Temp;Humidity;BMP_temperature;BMP_pressure;BME280_temperature;BME280_humidity;BME280_pressure;Samples;Min_cycle;Max_cycle;Signal;HPM_P1;HPM_P2
2021/03/12 00:02:24;;;;;;;6.68;1.98;;;7.10;99.90;;;;;;5018147;28;20037;-75
2021/03/12 00:04:50;;;;;;;8.27;2.17;;;7.10;99.90;;;;;;5003139;28;20095;-75
2021/03/12 00:07:15;;;;;;;8.70;2.05;;;7.10;99.90;;;;;;5021345;28;20037;-75
2021/03/12 00:09:41;;;;;;;4.22;1.90;;;7.10;99.90;;;;;;4978057;28;20030;-74
2021/03/12 00:12:08;;;;;;;8.00;2.03;;;7.10;99.90;;;;;;5018452;28;20069;-75
2021/03/12 00:14:34;;;;;;;7.22;2.03;;;7.20;99.90;;;;;;5001653;28;20030;-74
2021/03/12 00:17:00;;;;;;;4.70;1.92;;;7.20;99.90;;;;;;4999429;28;20030;-75
2021/03/12 00:19:26;;;;;;;6.45;1.95;;;7.20;99.90;;;;;;5002887;28;20425;-74
2021/03/12 00:21:53;;;;;;;8.23;2.45;;;7.10;99.90;;;;;;4986607;28;20029;-74
2021/03/12 00:24:19;;;;;;;6.30;1.88;;;7.10;99.90;;;;;;5003816;28;20421;-74
2021/03/12 00:26:46;;;;;;;6.45;1.92;;;7.00;99.90;;;;;;5019343;28;20081;-74
2021/03/12 00:29:12;;;;;;;5.05;1.67;;;6.90;99.90;;;;;;4987302;28;20041;-74
2021/03/12 00:31:38;;;;;;;8.27;1.80;;;6.90;99.90;;;;;;4987018;28;20397;-74
2021/03/12 00:34:03;;;;;;;3.83;1.80;;;6.90;99.90;;;;;;4987180;28;20633;-75
2021/03/12 00:36:29;;;;;;;10.05;1.63;;;7.00;99.90;;;;;;5002639;28;20071;-75
2021/03/12 00:38:55;;;;;;;5.07;1.80;;;7.10;99.90;;;;;;4986456;28;20079;-75
2021/03/12 00:41:21;;;;;;;6.18;2.10;;;7.10;99.90;;;;;;5003205;28;20064;-75
2021/03/12 00:43:53;;;;;;;8.63;2.85;;;7.10;99.90;;;;;;4996106;28;20060;-74
2021/03/12 00:46:30;;;;;;;8.90;2.25;;;7.20;99.90;;;;;;5002956;28;20029;-74
2021/03/12 00:48:56;;;;;;;6.85;1.90;;;7.20;99.90;;;;;;5002709;28;20156;-75
2021/03/12 00:51:23;;;;;;;5.63;1.80;;;7.10;99.90;;;;;;4986980;28;20509;-75
2021/03/12 00:54:12;;;;;;;12.15;2.13;;;7.20;99.90;;;;;;5009106;28;20049;-75
2021/03/12 00:56:40;;;;;;;7.68;2.13;;;7.20;99.90;;;;;;5019068;28;20029;-76
2021/03/12 00:59:08;;;;;;;6.57;2.10;;;7.30;99.90;;;;;;4999878;28;20064;-75
2021/03/12 01:01:42;;;;;;;8.68;1.92;;;7.40;99.90;;;;;;4991388;28;20041;-75
2021/03/12 01:04:08;;;;;;;9.40;2.08;;;7.40;99.90;;;;;;5004349;28;20033;-76
2021/03/12 01:06:34;;;;;;;5.00;2.25;;;7.30;99.90;;;;;;4989826;28;20029;-75
2021/03/12 01:09:03;;;;;;;12.35;2.22;;;7.30;99.90;;;;;;4992669;28;20132;-76
2021/03/12 01:11:32;;;;;;;9.13;2.10;;;7.30;99.90;;;;;;4989214;28;20116;-75
2021/03/12 01:13:58;;;;;;;4.78;1.80;;;7.30;99.90;;;;;;5006978;28;20030;-76
2021/03/12 01:16:30;;;;;;;12.13;2.78;;;7.20;99.90;;;;;;5006621;28;20030;-76
2021/03/12 01:18:58;;;;;;;7.78;2.75;;;7.30;99.90;;;;;;5006676;28;20029;-75
2021/03/12 01:21:28;;;;;;;10.32;2.63;;;7.20;99.90;;;;;;5006156;28;20064;-75
2021/03/12 01:23:56;;;;;;;6.65;2.30;;;7.20;99.90;;;;;;5005892;28;20033;-76
2021/03/12 01:26:24;;;;;;;7.18;2.55;;;7.10;99.90;;;;;;5023916;28;20131;-75
2021/03/12 01:29:01;;;;;;;6.43;2.88;;;6.90;99.90;;;;;;4991596;28;20034;-75
2021/03/12 01:31:40;;;;;;;18.88;3.80;;;6.70;99.90;;;;;;5009504;28;20053;-74
2021/03/12 01:34:10;;;;;;;14.98;4.13;;;6.60;99.90;;;;;;5008307;28;20159;-75
2021/03/12 01:36:39;;;;;;;14.68;4.30;;;6.40;99.90;;;;;;5005862;28;20168;-77
2021/03/12 01:39:07;;;;;;;16.98;4.38;;;6.30;99.90;;;;;;5005607;28;20042;-76
2021/03/12 01:41:33;;;;;;;12.00;4.38;;;6.20;99.90;;;;;;5022163;28;20438;-76
2021/03/12 01:44:04;;;;;;;12.82;4.47;;;6.10;99.90;;;;;;5005576;28;20100;-77
2021/03/12 01:46:32;;;;;;;14.60;4.47;;;6.10;99.90;;;;;;4989076;28;20410;-76
2021/03/12 01:48:58;;;;;;;10.32;3.85;;;6.00;99.90;;;;;;5004329;28;20037;-76
2021/03/12 01:51:24;;;;;;;6.57;2.80;;;6.00;99.90;;;;;;5005476;28;20533;-76
2021/03/12 01:53:50;;;;;;;11.50;3.55;;;6.00;99.90;;;;;;4987667;28;20414;-76
2021/03/12 01:56:16;;;;;;;7.05;2.60;;;6.00;99.90;;;;;;4988958;28;20053;-76
2021/03/12 01:58:57;;;;;;;5.30;2.53;;;6.00;99.90;;;;;;5005257;28;20087;-75
2021/03/12 02:01:39;;;;;;;4.65;2.90;;;5.90;99.90;;;;;;5022463;28;20029;-75
2021/03/12 02:04:11;;;;;;;6.47;2.58;;;5.90;99.90;;;;;;5021811;28;20033;-75
2021/03/12 02:06:58;;;;;;;7.40;3.08;;;5.90;99.90;;;;;;5000041;28;20037;-75
2021/03/12 02:09:24;;;;;;;6.47;2.70;;;5.80;99.90;;;;;;4985866;28;20037;-76
2021/03/12 02:12:09;;;;;;;9.05;2.90;;;5.80;99.90;;;;;;4992038;28;20472;-75
2021/03/12 02:15:02;;;;;;;4.63;2.38;;;5.70;99.90;;;;;;4988400;28;20140;-76
2021/03/12 02:17:44;;;;;;;5.30;2.43;;;5.70;99.90;;;;;;4988832;28;20057;-75
2021/03/12 02:20:35;;;;;;;6.40;2.25;;;5.60;99.90;;;;;;4983184;28;20613;-76
2021/03/12 02:23:41;;;;;;;4.50;1.90;;;5.60;99.90;;;;;;5017433;28;20037;-76
2021/03/12 02:26:19;;;;;;;6.70;2.17;;;5.50;99.90;;;;;;5021428;28;20033;-75
2021/03/12 02:28:47;;;;;;;4.57;2.10;;;5.40;99.90;;;;;;5005507;28;20068;-76
2021/03/12 02:31:13;;;;;;;6.57;2.40;;;5.30;99.90;;;;;;5005292;28;20030;-76
2021/03/12 02:33:44;;;;;;;6.43;1.98;;;5.30;99.90;;;;;;4988821;28;20680;-76
2021/03/12 02:36:18;;;;;;;10.35;1.92;;;5.20;99.90;;;;;;5003242;28;20086;-76
2021/03/12 02:38:56;;;;;;;4.57;1.67;;;5.20;99.90;;;;;;5016682;28;20033;-76
2021/03/12 02:41:24;;;;;;;3.47;1.63;;;5.20;99.90;;;;;;5003117;28;20584;-76
2021/03/12 02:43:55;;;;;;;4.03;1.52;;;5.10;99.90;;;;;;4987384;28;20412;-75
2021/03/12 02:46:27;;;;;;;4.30;1.52;;;5.20;99.90;;;;;;4987895;28;20041;-76
2021/03/12 02:48:58;;;;;;;9.23;1.58;;;5.20;99.90;;;;;;4984055;28;20141;-75
2021/03/12 02:51:25;;;;;;;3.13;1.25;;;5.20;99.90;;;;;;4988594;28;20029;-76
2021/03/12 02:53:53;;;;;;;4.05;1.50;;;5.20;99.90;;;;;;4997836;28;20030;-76
2021/03/12 02:56:30;;;;;;;7.68;1.17;;;5.30;99.90;;;;;;4985988;28;20060;-76
2021/03/12 02:58:56;;;;;;;4.85;1.33;;;5.30;99.90;;;;;;4987647;28;20033;-76
2021/03/12 03:01:54;;;;;;;4.15;1.30;;;5.30;99.90;;;;;;5006493;28;20064;-76
2021/03/12 03:04:30;;;;;;;4.00;1.20;;;5.30;99.90;;;;;;4989653;28;20037;-76
2021/03/12 03:07:09;;;;;;;3.67;1.38;;;5.30;99.90;;;;;;4988406;28;20091;-76
2021/03/12 03:09:37;;;;;;;3.10;1.30;;;5.30;99.90;;;;;;4985869;28;20033;-76
2021/03/12 03:12:04;;;;;;;9.35;1.70;;;5.30;99.90;;;;;;4986783;28;20040;-76
2021/03/12 03:14:31;;;;;;;5.57;1.63;;;5.30;99.90;;;;;;5001360;28;20087;-77
2021/03/12 03:17:00;;;;;;;2.92;1.13;;;5.30;99.90;;;;;;4993756;28;20033;-76
2021/03/12 03:19:28;;;;;;;3.13;1.25;;;5.30;99.90;;;;;;4984423;28;20038;-76
2021/03/12 03:21:56;;;;;;;4.13;1.27;;;5.30;99.90;;;;;;4973187;28;20065;-76
2021/03/12 03:24:22;;;;;;;3.65;1.80;;;5.20;99.90;;;;;;5000097;28;20045;-76
2021/03/12 03:26:48;;;;;;;6.05;1.73;;;5.20;99.90;;;;;;4992686;28;20616;-76
2021/03/12 03:29:14;;;;;;;6.45;1.38;;;5.20;99.90;;;;;;4987321;28;20037;-76
2021/03/12 03:31:40;;;;;;;5.75;1.65;;;5.30;99.90;;;;;;5002434;28;20049;-76
2021/03/12 03:34:06;;;;;;;6.93;1.60;;;5.30;99.90;;;;;;5003621;28;20033;-76
2021/03/12 03:36:32;;;;;;;5.00;1.45;;;5.30;99.90;;;;;;5002447;28;20034;-75
2021/03/12 03:38:58;;;;;;;7.93;1.98;;;5.40;99.90;;;;;;5018733;28;20034;-76
2021/03/12 03:41:25;;;;;;;5.90;1.40;;;5.30;99.90;;;;;;5015977;28;20037;-76
2021/03/12 03:43:53;;;;;;;7.43;1.55;;;5.40;99.90;;;;;;4983871;28;20084;-75
2021/03/12 03:46:25;;;;;;;3.17;1.40;;;5.40;99.90;;;;;;4998477;28;20076;-75
2021/03/12 03:48:53;;;;;;;4.10;1.70;;;5.30;99.90;;;;;;4997393;28;20231;-76
2021/03/12 03:51:30;;;;;;;9.82;1.50;;;5.40;99.90;;;;;;4989041;28;20093;-75
2021/03/12 03:53:57;;;;;;;6.97;1.38;;;5.40;99.90;;;;;;5000320;28;20033;-75
2021/03/12 03:56:23;;;;;;;4.97;1.50;;;5.40;99.90;;;;;;4984654;28;20041;-75
2021/03/12 03:58:51;;;;;;;9.07;1.42;;;5.40;99.90;;;;;;4996660;28;20041;-76
2021/03/12 04:01:18;;;;;;;6.30;1.52;;;5.30;99.90;;;;;;5017050;28;20037;-75
2021/03/12 04:03:51;;;;;;;8.88;1.63;;;5.30;99.90;;;;;;4996523;28;20033;-75
2021/03/12 04:06:17;;;;;;;4.30;1.60;;;5.20;99.90;;;;;;4997084;28;20042;-76
2021/03/12 04:08:45;;;;;;;9.80;1.92;;;5.20;99.90;;;;;;5001745;28;20033;-76
2021/03/12 04:11:12;;;;;;;6.10;1.60;;;5.30;99.90;;;;;;5018796;28;20033;-76
2021/03/12 04:13:38;;;;;;;4.75;1.70;;;5.30;99.90;;;;;;4979780;28;20040;-76
2021/03/12 04:16:05;;;;;;;6.38;1.40;;;5.30;99.90;;;;;;5018096;28;20036;-78
2021/03/12 04:18:31;;;;;;;5.90;1.75;;;5.30;99.90;;;;;;4998865;28;20501;-78
2021/03/12 04:20:58;;;;;;;10.50;1.80;;;5.30;99.90;;;;;;4997065;28;20030;-75
2021/03/12 04:23:25;;;;;;;7.47;1.65;;;5.30;99.90;;;;;;4984351;28;20045;-76
2021/03/12 04:25:52;;;;;;;7.40;1.60;;;5.30;99.90;;;;;;4996923;28;20034;-78
2021/03/12 04:28:18;;;;;;;7.50;1.98;;;5.30;99.90;;;;;;5000675;28;20325;-78
2021/03/12 04:30:45;;;;;;;12.25;2.10;;;5.30;99.90;;;;;;4980945;28;20056;-77
2021/03/12 04:33:16;;;;;;;6.10;1.98;;;5.30;99.90;;;;;;4985075;28;20022;-77
2021/03/12 04:35:47;;;;;;;;;;;5.30;99.90;;;;;;4997746;28;20059;-77
2021/03/12 04:38:16;;;;;;;4.53;2.33;;;5.20;99.90;;;;;;4998100;28;19914;-78
2021/03/12 04:40:42;;;;;;;5.53;2.42;;;5.20;99.90;;;;;;4997532;28;20063;-78
2021/03/12 04:43:09;;;;;;;4.35;2.42;;;5.20;99.90;;;;;;4995252;28;20406;-78
2021/03/12 04:45:36;;;;;;;7.57;3.03;;;5.10;99.90;;;;;;4997065;28;20065;-78
2021/03/12 04:48:02;;;;;;;6.45;2.85;;;5.10;99.90;;;;;;4977850;28;20064;-78
2021/03/12 04:50:31;;;;;;;8.77;3.00;;;5.10;99.90;;;;;;4994262;28;20137;-78
2021/03/12 04:52:59;;;;;;;6.20;2.70;;;5.10;99.90;;;;;;4984185;28;20030;-78
2021/03/12 04:55:28;;;;;;;11.57;3.53;;;5.10;99.90;;;;;;5016942;28;20037;-78
2021/03/12 04:57:55;;;;;;;5.43;2.67;;;5.10;99.90;;;;;;5001559;28;20033;-75
2021/03/12 05:00:22;;;;;;;5.20;3.10;;;5.00;99.90;;;;;;5009372;28;20572;-75
2021/03/12 05:02:58;;;;;;;8.40;2.63;;;5.00;99.90;;;;;;4984906;28;20128;-76
2021/03/12 05:05:27;;;;;;;9.95;3.30;;;5.10;99.90;;;;;;4982768;28;20042;-76
2021/03/12 05:07:54;;;;;;;4.47;3.10;;;5.10;99.90;;;;;;4980335;28;20494;-76
2021/03/12 05:10:32;;;;;;;10.07;3.65;;;5.10;99.90;;;;;;4995855;28;20030;-76
2021/03/12 05:13:04;;;;;;;8.60;3.45;;;5.20;99.90;;;;;;4972429;28;20053;-76
2021/03/12 05:15:35;;;;;;;8.73;3.50;;;5.20;99.90;;;;;;4975298;28;20065;-76
2021/03/12 05:18:03;;;;;;;12.23;3.22;;;5.20;99.90;;;;;;4976330;28;20061;-76
2021/03/12 05:20:29;;;;;;;10.23;4.10;;;5.30;99.90;;;;;;4977995;28;20121;-76
2021/03/12 05:22:55;;;;;;;16.63;6.57;;;5.20;99.90;;;;;;4974979;28;20055;-76
2021/03/12 05:25:21;;;;;;;23.00;10.25;;;5.10;99.90;;;;;;4999135;28;20119;-72
2021/03/12 05:27:46;;;;;;;19.75;7.90;;;5.10;99.90;;;;;;4982890;28;20041;-73
2021/03/12 05:30:13;;;;;;;31.95;10.93;;;5.10;99.90;;;;;;5000078;28;20092;-73
2021/03/12 05:32:40;;;;;;;7.35;2.63;;;5.10;99.90;;;;;;4992809;28;20037;-72
2021/03/12 05:35:08;;;;;;;6.32;2.55;;;5.10;99.90;;;;;;4999500;28;20026;-71
2021/03/12 05:37:34;;;;;;;6.90;2.22;;;5.10;99.90;;;;;;4999655;28;20347;-73
2021/03/12 05:39:59;;;;;;;4.03;2.25;;;5.00;99.90;;;;;;5000089;28;20549;-81
2021/03/12 05:42:26;;;;;;;4.85;2.75;;;5.00;99.90;;;;;;4984982;28;20029;-71
2021/03/12 05:44:54;;;;;;;5.32;2.60;;;4.90;99.90;;;;;;4999583;28;20037;-78
2021/03/12 05:47:22;;;;;;;7.65;3.60;;;5.00;99.90;;;;;;4985286;28;20147;-77
2021/03/12 05:49:49;;;;;;;14.38;3.50;;;4.90;99.90;;;;;;5001400;28;20080;-78
2021/03/12 05:52:18;;;;;;;6.57;3.15;;;4.90;99.90;;;;;;5003103;28;20835;-78
2021/03/12 05:54:44;;;;;;;5.57;3.50;;;4.90;99.90;;;;;;4986170;28;20026;-78
2021/03/12 05:57:11;;;;;;;12.15;6.85;;;4.90;99.90;;;;;;4993815;28;20037;-78
2021/03/12 05:59:38;;;;;;;10.45;3.55;;;4.90;99.90;;;;;;5002468;28;20060;-77
2021/03/12 06:02:05;;;;;;;6.35;3.95;;;4.90;99.90;;;;;;4991023;28;20106;-77
2021/03/12 06:04:31;;;;;;;9.15;4.60;;;4.90;99.90;;;;;;4980784;28;20022;-77
2021/03/12 06:06:56;;;;;;;8.10;3.83;;;4.90;99.90;;;;;;4981304;28;20103;-77
2021/03/12 06:09:24;;;;;;;10.45;5.63;;;4.90;99.90;;;;;;4986657;28;20146;-77
2021/03/12 06:11:55;;;;;;;12.27;5.47;;;4.90;99.90;;;;;;5002814;28;20025;-78
2021/03/12 06:14:54;;;;;;;7.43;4.57;;;4.90;99.90;;;;;;4991800;28;20037;-78
2021/03/12 06:17:47;;;;;;;8.05;4.10;;;5.00;99.90;;;;;;4995071;28;20135;-77
2021/03/12 06:20:34;;;;;;;8.52;4.45;;;5.00;99.90;;;;;;5014032;28;20886;-77
2021/03/12 06:23:00;;;;;;;6.78;4.18;;;5.00;99.90;;;;;;4985357;28;20528;-77
2021/03/12 06:25:31;;;;;;;11.55;4.60;;;5.20;99.90;;;;;;4985271;28;20065;-78
2021/03/12 06:28:20;;;;;;;8.45;4.95;;;5.30;99.90;;;;;;4982569;28;20030;-77
2021/03/12 06:31:31;;;;;;;8.05;5.00;;;5.30;99.90;;;;;;5005347;28;20060;-78
2021/03/12 06:34:12;;;;;;;11.30;5.45;;;5.30;99.90;;;;;;5010845;28;20042;-77
2021/03/12 06:36:57;;;;;;;10.10;5.70;;;5.20;99.90;;;;;;5010935;28;20080;-77
2021/03/12 06:39:40;;;;;;;15.50;6.45;;;5.00;99.90;;;;;;4999724;28;20132;-77
2021/03/12 06:42:30;;;;;;;10.75;5.72;;;5.00;99.90;;;;;;5000606;28;20057;-77
2021/03/12 06:45:01;;;;;;;13.02;6.65;;;4.90;99.90;;;;;;4978348;28;20145;-77
2021/03/12 06:47:28;;;;;;;11.95;6.05;;;5.00;99.90;;;;;;5013392;28;20147;-76
2021/03/12 06:50:12;;;;;;;10.43;5.97;;;5.10;99.90;;;;;;4993643;28;20026;-79
2021/03/12 06:52:45;;;;;;;15.20;6.03;;;5.30;99.90;;;;;;4992894;28;20046;-78
2021/03/12 06:55:22;;;;;;;14.57;5.97;;;5.40;99.90;;;;;;4980968;28;20111;-80
2021/03/12 06:58:16;;;;;;;10.57;6.00;;;5.50;99.90;;;;;;5009002;28;20414;-77
2021/03/12 07:00:49;;;;;;;12.25;6.40;;;5.60;99.90;;;;;;4990318;28;20151;-75
2021/03/12 07:03:23;;;;;;;9.15;5.50;;;5.60;99.90;;;;;;4990164;28;20037;-72
2021/03/12 07:06:07;;;;;;;10.18;6.15;;;5.60;99.90;;;;;;4996740;28;20037;-76
2021/03/12 07:08:38;;;;;;;13.43;5.95;;;5.50;99.90;;;;;;4999550;28;20034;-75
2021/03/12 07:11:28;;;;;;;8.57;5.15;;;5.50;99.90;;;;;;4982701;28;20577;-76
2021/03/12 07:14:10;;;;;;;9.98;5.70;;;5.50;99.90;;;;;;4994810;28;20038;-75
2021/03/12 07:16:36;;;;;;;9.32;4.82;;;5.60;99.90;;;;;;4991545;28;20075;-75
2021/03/12 07:19:05;;;;;;;12.63;5.53;;;5.70;99.90;;;;;;4999548;28;20496;-74
2021/03/12 07:21:32;;;;;;;12.48;5.50;;;5.70;99.90;;;;;;5013019;28;20034;-75
2021/03/12 07:24:04;;;;;;;10.05;5.47;;;5.70;99.90;;;;;;5005561;28;20033;-74
2021/03/12 07:26:40;;;;;;;9.85;4.70;;;5.70;99.90;;;;;;4991115;28;20068;-75
2021/03/12 07:29:09;;;;;;;7.15;4.75;;;5.90;99.90;;;;;;4996342;28;20059;-77
2021/03/12 07:31:49;;;;;;;7.85;4.47;;;5.90;99.90;;;;;;5000883;28;20026;-75
2021/03/12 07:34:21;;;;;;;14.20;4.70;;;6.00;99.90;;;;;;5015966;28;20029;-75
2021/03/12 07:36:54;;;;;;;8.27;3.80;;;6.10;99.90;;;;;;4999933;28;20556;-75
2021/03/12 07:39:43;;;;;;;15.65;4.45;;;6.30;99.90;;;;;;4983814;28;20573;-71
2021/03/12 07:42:18;;;;;;;7.50;4.35;;;6.40;99.90;;;;;;5001292;28;20083;-74
2021/03/12 07:45:17;;;;;;;7.90;4.15;;;6.70;99.90;;;;;;4995772;28;20044;-75
2021/03/12 07:48:03;;;;;;;7.90;4.10;;;6.80;99.90;;;;;;4999815;28;20037;-74
2021/03/12 07:50:38;;;;;;;7.97;4.05;;;6.90;99.90;;;;;;4993983;28;20021;-74
2021/03/12 07:53:11;;;;;;;7.80;4.00;;;6.90;99.90;;;;;;5015891;28;20103;-78
2021/03/12 07:55:51;;;;;;;7.20;4.18;;;6.90;99.90;;;;;;4991571;28;20053;-74
2021/03/12 07:58:54;;;;;;;10.38;4.40;;;6.90;99.90;;;;;;5002856;28;20069;-76
2021/03/12 08:01:57;;;;;;;9.68;4.60;;;7.00;99.90;;;;;;4986087;28;20036;-75
2021/03/12 08:04:46;;;;;;;;;;;7.00;99.90;;;;;;5005752;28;20848;-75
2021/03/12 08:07:20;;;;;;;7.78;4.20;;;7.20;99.90;;;;;;4999049;28;19913;-75
2021/03/12 08:09:55;;;;;;;7.47;4.50;;;7.20;99.90;;;;;;4998456;28;20108;-75
2021/03/12 08:12:40;;;;;;;9.57;4.57;;;7.30;99.90;;;;;;4999741;28;20033;-75
2021/03/12 08:15:38;;;;;;;12.02;4.72;;;7.40;99.90;;;;;;4967136;28;20552;-75
2021/03/12 08:18:19;;;;;;;9.35;4.50;;;7.40;99.90;;;;;;4981677;28;20100;-76
2021/03/12 08:20:57;;;;;;;11.90;4.50;;;7.50;99.90;;;;;;5006901;28;20041;-75
2021/03/12 08:23:40;;;;;;;12.90;5.20;;;7.60;99.90;;;;;;4984658;28;20033;-76
2021/03/12 08:26:54;;;;;;;12.02;5.53;;;7.80;99.90;;;;;;4996434;28;20045;-76
2021/03/12 08:29:58;;;;;;;;;;;7.50;99.90;;;;;;5005540;28;20169;-76
2021/03/12 08:32:36;;;;;;;21.67;10.50;;;7.90;99.90;;;;;;4999919;28;19913;-75
2021/03/12 08:35:36;;;;;;;13.55;5.95;;;8.10;99.90;;;;;;5001201;28;20072;-74
2021/03/12 08:38:26;;;;;;;12.98;4.63;;;8.30;99.90;;;;;;5017986;28;20056;-77
2021/03/12 08:41:22;;;;;;;10.20;4.85;;;7.80;99.90;;;;;;4986849;28;20060;-75
2021/03/12 08:44:13;;;;;;;8.45;4.90;;;7.90;99.90;;;;;;5000304;28;20382;-78
2021/03/12 08:46:58;;;;;;;10.45;5.10;;;7.70;99.90;;;;;;4994592;28;20076;-75
2021/03/12 08:49:28;;;;;;;9.68;5.10;;;7.60;99.90;;;;;;5015705;28;20033;-75
2021/03/12 08:51:56;;;;;;;8.45;4.75;;;7.50;99.90;;;;;;4988855;28;20135;-76
2021/03/12 08:54:29;;;;;;;11.70;4.95;;;7.50;99.90;;;;;;4999655;28;20525;-75
2021/03/12 08:56:59;;;;;;;10.75;5.10;;;7.60;99.90;;;;;;4998844;28;20653;-76
2021/03/12 08:59:30;;;;;;;8.82;4.78;;;7.60;99.90;;;;;;4998290;28;20044;-75
2021/03/12 09:02:22;;;;;;;10.32;4.88;;;7.60;99.90;;;;;;5017210;28;20106;-77
2021/03/12 09:04:55;;;;;;;6.97;4.40;;;7.50;99.90;;;;;;4998331;28;20034;-77
2021/03/12 09:07:57;;;;;;;15.57;5.05;;;7.60;99.90;;;;;;4999128;28;20576;-77
2021/03/12 09:10:38;;;;;;;12.05;4.47;;;7.90;99.90;;;;;;4992340;28;20122;-77
2021/03/12 09:13:33;;;;;;;;;;;8.00;99.90;;;;;;4998103;28;20030;-77
2021/03/12 09:16:04;;;;;;;11.52;4.50;;;8.10;99.90;;;;;;5012506;28;19909;-78
2021/03/12 09:18:31;;;;;;;10.68;3.95;;;8.20;99.90;;;;;;4980804;28;20083;-77
2021/03/12 09:21:00;;;;;;;11.02;4.00;;;8.40;99.90;;;;;;4981745;28;20037;-77
2021/03/12 09:23:50;;;;;;;8.40;3.35;;;8.40;99.90;;;;;;5003737;28;20041;-83
2021/03/12 09:26:22;;;;;;;7.57;3.58;;;8.50;99.90;;;;;;4986173;28;20477;-76
2021/03/12 09:28:58;;;;;;;8.68;3.38;;;8.50;99.90;;;;;;4988009;28;20043;-74
2021/03/12 09:31:29;;;;;;;7.47;3.30;;;8.50;99.90;;;;;;5011034;28;20120;-75
2021/03/12 09:34:00;;;;;;;9.48;3.50;;;8.60;99.90;;;;;;5003586;28;20037;-76
2021/03/12 09:36:50;;;;;;;10.10;3.53;;;8.40;99.90;;;;;;5019707;28;20061;-76
2021/03/12 09:39:39;;;;;;;5.75;3.30;;;8.20;99.90;;;;;;5020687;28;20100;-75
2021/03/12 09:42:12;;;;;;;11.02;4.65;;;8.30;99.90;;;;;;5018944;28;20037;-77
2021/03/12 09:44:46;;;;;;;9.73;3.75;;;8.40;99.90;;;;;;5001977;28;20121;-75
2021/03/12 09:47:19;;;;;;;9.20;3.40;;;8.60;99.90;;;;;;5002065;28;20057;-76
2021/03/12 09:49:51;;;;;;;10.88;3.50;;;8.50;99.90;;;;;;5013449;28;20271;-75
2021/03/12 09:52:22;;;;;;;8.93;3.42;;;8.30;99.90;;;;;;4998382;28;20026;-75
2021/03/12 09:54:57;;;;;;;8.23;3.70;;;8.20;99.90;;;;;;5000430;28;20068;-78
2021/03/12 09:57:24;;;;;;;11.35;3.25;;;8.20;99.90;;;;;;4984313;28;20025;-75
2021/03/12 09:59:55;;;;;;;8.55;3.40;;;8.30;99.90;;;;;;4979683;28;20823;-78
2021/03/12 10:02:48;;;;;;;;;;;8.50;99.90;;;;;;5018903;28;20048;-77
2021/03/12 10:05:24;;;;;;;10.68;3.35;;;8.70;99.90;;;;;;4985397;28;19913;-76
2021/03/12 10:08:05;;;;;;;12.18;4.13;;;8.90;99.90;;;;;;4988851;28;20134;-76
2021/03/12 10:10:56;;;;;;;10.60;3.13;;;9.10;99.90;;;;;;5012116;28;20052;-75
2021/03/12 10:13:26;;;;;;;9.82;3.67;;;9.20;99.90;;;;;;4986905;28;20634;-77
2021/03/12 10:15:53;;;;;;;7.22;2.80;;;9.30;99.90;;;;;;4989318;28;20057;-78
2021/03/12 10:18:41;;;;;;;11.70;2.65;;;9.30;99.90;;;;;;5012457;28;20045;-76
2021/03/12 10:21:11;;;;;;;9.73;3.05;;;9.50;99.90;;;;;;4982245;28;20037;-77
2021/03/12 10:23:37;;;;;;;12.73;3.60;;;9.30;99.90;;;;;;4995515;28;20047;-77
2021/03/12 10:26:06;;;;;;;8.13;3.30;;;9.00;99.90;;;;;;5008090;28;20037;-77
2021/03/12 10:28:33;;;;;;;12.77;4.10;;;9.00;99.90;;;;;;5007499;28;20037;-76
2021/03/12 10:31:00;;;;;;;9.90;3.97;;;8.90;99.90;;;;;;4977743;28;20488;-76
2021/03/12 10:33:28;;;;;;;13.88;4.50;;;8.80;99.90;;;;;;5004267;28;20061;-77
2021/03/12 10:35:59;;;;;;;9.30;3.72;;;8.80;99.90;;;;;;5006043;28;20029;-76
2021/03/12 10:38:34;;;;;;;14.90;4.50;;;8.70;99.90;;;;;;4997246;28;20441;-75
2021/03/12 10:41:18;;;;;;;8.38;3.28;;;8.60;99.90;;;;;;4981414;28;20037;-76
2021/03/12 10:43:56;;;;;;;12.63;3.90;;;8.80;99.90;;;;;;4999831;28;20033;-76
2021/03/12 10:46:21;;;;;;;13.18;3.80;;;8.80;99.90;;;;;;5016604;28;20056;-77
2021/03/12 10:48:50;;;;;;;9.27;3.38;;;9.00;99.90;;;;;;4989123;28;20062;-76
2021/03/12 10:51:18;;;;;;;11.98;3.60;;;9.20;99.90;;;;;;4996397;28;20116;-78
2021/03/12 10:53:45;;;;;;;11.00;3.75;;;9.40;99.90;;;;;;5014283;28;20076;-76
2021/03/12 10:56:10;;;;;;;9.43;3.95;;;9.80;99.70;;;;;;4999971;28;20595;-76
2021/03/12 10:58:38;;;;;;;6.93;4.10;;;10.00;99.40;;;;;;4978528;28;20038;-75
2021/03/12 11:01:09;;;;;;;11.85;4.38;;;10.00;99.60;;;;;;5011528;28;20478;-80
2021/03/12 11:03:35;;;;;;;7.88;4.30;;;10.00;99.90;;;;;;5006844;28;20053;-75
2021/03/12 11:06:01;;;;;;;9.48;4.40;;;10.00;99.50;;;;;;5016977;28;20029;-76
2021/03/12 11:08:27;;;;;;;10.93;4.28;;;10.00;98.60;;;;;;5000678;28;20056;-82
2021/03/12 11:10:57;;;;;;;7.20;3.90;;;9.90;97.90;;;;;;4997890;28;20057;-78
2021/03/12 11:13:24;;;;;;;10.18;4.35;;;9.90;98.40;;;;;;5017790;28;20080;-78
2021/03/12 11:15:50;;;;;;;11.20;4.55;;;9.70;98.10;;;;;;4997773;28;20052;-76
2021/03/12 11:18:17;;;;;;;9.40;4.32;;;9.80;98.00;;;;;;5015708;28;20633;-76
2021/03/12 11:20:44;;;;;;;16.23;4.15;;;10.10;96.30;;;;;;5016526;28;20030;-76
2021/03/12 11:23:10;;;;;;;12.95;4.05;;;9.90;96.20;;;;;;5017952;28;20037;-77
2021/03/12 11:25:37;;;;;;;6.55;3.63;;;10.00;96.00;;;;;;4990000;28;20045;-77
2021/03/12 11:28:03;;;;;;;9.52;3.67;;;10.50;96.60;;;;;;4995346;28;20693;-74
2021/03/12 11:30:29;;;;;;;12.93;4.30;;;10.70;95.90;;;;;;5011385;28;20064;-75
2021/03/12 11:32:55;;;;;;;8.15;4.15;;;10.70;94.60;;;;;;5017528;28;20749;-76
2021/03/12 11:35:22;;;;;;;12.15;4.50;;;10.60;95.50;;;;;;4998293;28;20672;-75
2021/03/12 11:37:49;;;;;;;7.55;4.15;;;10.60;94.90;;;;;;5010945;28;20037;-74
2021/03/12 11:40:15;;;;;;;10.77;4.40;;;10.10;94.80;;;;;;4999626;28;20115;-82
2021/03/12 11:42:41;;;;;;;9.13;4.50;;;10.30;94.90;;;;;;4983884;28;20611;-83
2021/03/12 11:45:10;;;;;;;16.60;3.80;;;10.30;95.40;;;;;;4974169;28;20100;-74
2021/03/12 11:47:38;;;;;;;9.05;3.78;;;10.20;95.90;;;;;;4996348;28;20033;-75
2021/03/12 11:50:06;;;;;;;11.13;3.83;;;10.40;95.60;;;;;;4993466;28;20041;-75
2021/03/12 11:52:32;;;;;;;6.90;3.38;;;10.30;95.20;;;;;;5000497;28;20486;-77
2021/03/12 11:54:58;;;;;;;10.45;2.88;;;10.10;94.30;;;;;;5004177;28;20033;-76
2021/03/12 11:57:24;;;;;;;9.00;3.03;;;10.00;93.70;;;;;;4994179;28;20025;-74
2021/03/12 11:59:49;;;;;;;6.57;3.03;;;10.30;94.30;;;;;;4996481;28;20168;-74
2021/03/12 12:02:16;;;;;;;8.48;2.90;;;10.70;93.00;;;;;;4998078;28;20030;-75
2021/03/12 12:04:43;;;;;;;8.00;2.90;;;10.70;91.90;;;;;;5015322;28;20103;-75
2021/03/12 12:07:10;;;;;;;8.82;2.65;;;10.80;91.30;;;;;;5018285;28;20080;-75
2021/03/12 12:09:36;;;;;;;6.05;2.67;;;10.60;92.30;;;;;;5000185;28;20043;-75
2021/03/12 12:12:02;;;;;;;5.10;2.42;;;10.70;91.40;;;;;;4983948;28;20077;-76
2021/03/12 12:14:28;;;;;;;9.40;2.95;;;10.60;90.80;;;;;;5001047;28;20108;-73
2021/03/12 12:16:54;;;;;;;10.05;2.80;;;10.60;89.10;;;;;;5014525;28;20025;-80
2021/03/12 12:19:19;;;;;;;8.43;2.63;;;10.30;88.60;;;;;;4974797;28;20037;-74
2021/03/12 12:21:46;;;;;;;11.15;3.17;;;10.10;91.60;;;;;;5010699;28;20034;-75
2021/03/12 12:24:12;;;;;;;9.70;2.70;;;10.10;89.10;;;;;;4993569;28;20033;-75
2021/03/12 12:26:38;;;;;;;8.38;2.90;;;10.40;84.40;;;;;;5014465;28;20059;-75
2021/03/12 12:29:04;;;;;;;5.82;2.60;;;11.00;85.70;;;;;;4997620;28;20123;-75
2021/03/12 12:31:34;;;;;;;9.85;3.17;;;11.50;82.40;;;;;;4998970;28;20044;-74
2021/03/12 12:34:01;;;;;;;5.72;2.20;;;12.10;77.10;;;;;;5015627;28;20040;-74
2021/03/12 12:36:29;;;;;;;5.45;2.15;;;13.10;78.20;;;;;;4989455;28;20041;-73
2021/03/12 12:38:55;;;;;;;7.00;2.53;;;13.00;70.60;;;;;;5009677;28;20042;-74
2021/03/12 12:41:21;;;;;;;8.25;2.15;;;12.40;68.40;;;;;;5012590;28;20037;-74
2021/03/12 12:43:48;;;;;;;6.63;2.40;;;12.40;74.00;;;;;;5016264;28;20041;-74
2021/03/12 12:46:14;;;;;;;4.82;2.42;;;13.10;70.90;;;;;;4997697;28;20091;-73
2021/03/12 12:48:41;;;;;;;7.60;2.03;;;13.10;65.40;;;;;;5013155;28;20116;-75
2021/03/12 12:51:07;;;;;;;6.85;2.05;;;12.40;68.60;;;;;;4991608;28;20403;-74
2021/03/12 12:53:33;;;;;;;5.13;1.85;;;12.40;70.10;;;;;;5012126;28;20041;-74
2021/03/12 12:56:00;;;;;;;9.50;1.95;;;12.50;69.10;;;;;;4999902;28;20202;-75
2021/03/12 12:58:26;;;;;;;7.30;1.90;;;12.10;70.10;;;;;;5015045;28;20044;-74
2021/03/12 13:00:55;;;;;;;4.95;1.63;;;11.50;70.70;;;;;;4987643;28;20037;-75
2021/03/12 13:03:22;;;;;;;1.90;1.40;;;11.10;72.60;;;;;;5020012;28;20036;-74
2021/03/12 13:05:49;;;;;;;5.18;1.65;;;11.30;72.80;;;;;;5012102;28;20033;-74
2021/03/12 13:08:14;;;;;;;4.55;1.40;;;12.00;71.20;;;;;;5018311;28;20047;-75
2021/03/12 13:10:41;;;;;;;8.88;1.33;;;12.80;67.60;;;;;;4985971;28;20033;-74
2021/03/12 13:13:07;;;;;;;5.95;1.30;;;12.60;65.30;;;;;;5020467;28;20037;-75
2021/03/12 13:15:33;;;;;;;4.88;1.38;;;12.20;67.80;;;;;;5020311;28;20091;-75
2021/03/12 13:18:00;;;;;;;3.65;1.30;;;11.50;67.20;;;;;;5020534;28;20120;-75
2021/03/12 13:20:26;;;;;;;4.97;1.40;;;11.30;71.40;;;;;;5019913;28;20036;-74